createdAt,value
2022-08-12T00:01:12.979Z,99829.53
2022-08-12T00:03:59.970Z,99828.66
2022-08-12T00:06:47.046Z,99826.19
2022-08-12T00:09:33.328Z,99833.28
2022-08-12T00:12:19.666Z,99830.31
2022-08-12T00:15:06.081Z,99825.81
2022-08-12T00:17:52.406Z,99836.00
2022-08-12T00:20:38.869Z,99832.38
2022-08-12T00:23:25.185Z,99830.72
2022-08-12T00:26:22.993Z,99828.34
2022-08-12T00:29:13.544Z,99822.91
2022-08-12T00:32:01.306Z,99830.94
2022-08-12T00:34:49.692Z,99831.00
2022-08-12T00:37:40.796Z,99836.97
2022-08-12T00:40:29.094Z,99832.63
2022-08-12T00:42:57.648Z,99833.25
2022-08-12T00:45:25.614Z,99834.06
2022-08-12T00:47:54.144Z,99820.97
2022-08-12T00:50:22.715Z,99825.69
2022-08-12T00:52:52.924Z,99837.03
2022-08-12T00:55:21.235Z,99818.50
2022-08-12T00:57:50.673Z,99831.19
2022-08-12T01:00:21.685Z,99830.72
2022-08-12T01:02:55.725Z,99823.41
2022-08-12T01:05:43.300Z,99832.06
2022-08-12T01:08:30.130Z,99827.75
2022-08-12T01:11:16.357Z,99833.91
2022-08-12T01:13:48.238Z,99834.69
2022-08-12T01:16:18.192Z,99833.84
2022-08-12T01:18:46.095Z,99831.19
2022-08-12T01:21:26.692Z,99831.34
2022-08-12T01:24:29.687Z,99822.75
2022-08-12T01:27:00.257Z,99834.22
2022-08-12T01:29:32.457Z,99838.47
2022-08-12T01:32:05.650Z,99840.78
2022-08-12T01:34:39.461Z,99830.84
2022-08-12T01:37:10.308Z,99827.72
2022-08-12T01:40:34.587Z,99831.88
2022-08-12T01:42:42.453Z,99834.69
2022-08-12T01:45:12.430Z,99825.31
2022-08-12T01:48:00.733Z,99824.41
2022-08-12T01:50:51.077Z,99814.06
2022-08-12T01:53:20.754Z,99815.19
2022-08-12T01:55:48.876Z,99813.41
2022-08-12T01:58:56.014Z,99812.34
2022-08-12T02:01:30.779Z,99803.41
2022-08-12T02:04:32.690Z,99808.19
2022-08-12T02:07:54.267Z,99807.44
2022-08-12T02:10:55.926Z,99806.97
2022-08-12T02:13:49.785Z,99802.41
2022-08-12T02:16:28.050Z,99808.25
2022-08-12T02:19:22.232Z,99798.62
2022-08-12T02:22:12.920Z,99798.41
2022-08-12T02:24:42.585Z,99795.75
2022-08-12T02:27:13.286Z,99793.09
2022-08-12T02:29:40.973Z,99792.88
2022-08-12T02:32:08.994Z,99790.75
2022-08-12T02:34:37.841Z,99791.41
2022-08-12T02:37:05.370Z,99785.59
2022-08-12T02:39:34.427Z,99780.84
2022-08-12T02:42:04.425Z,99796.41
2022-08-12T02:44:37.258Z,99792.06
2022-08-12T02:47:06.510Z,99783.94
2022-08-12T02:49:36.253Z,99784.16
2022-08-12T02:52:04.759Z,99782.72
2022-08-12T02:54:32.493Z,99780.84
2022-08-12T02:57:00.815Z,99781.03
2022-08-12T02:59:29.565Z,99773.75
2022-08-12T03:02:03.633Z,99775.56
2022-08-12T03:04:39.050Z,99771.44
2022-08-12T03:07:15.930Z,99772.47
2022-08-12T03:10:03.674Z,99765.37
2022-08-12T03:12:48.982Z,99772.47
2022-08-12T03:15:22.246Z,99766.41
2022-08-12T03:18:24.824Z,99765.37
2022-08-12T03:20:46.148Z,99771.38
2022-08-12T03:23:28.610Z,99769.28
2022-08-12T03:26:01.794Z,99777.03
2022-08-12T03:28:50.632Z,99772.03
2022-08-12T03:31:24.721Z,99773.06
2022-08-12T03:34:02.385Z,99778.31
2022-08-12T03:36:35.921Z,99779.91
2022-08-12T03:39:18.592Z,99777.41
2022-08-12T03:42:06.191Z,99781.53
2022-08-12T03:45:31.325Z,99776.59
2022-08-12T03:48:24.005Z,99778.22
2022-08-12T03:51:10.888Z,99780.03
2022-08-12T03:53:56.926Z,99777.72
2022-08-12T03:56:43.330Z,99774.88
2022-08-12T03:59:29.951Z,99784.59
2022-08-12T04:01:59.192Z,99783.97
2022-08-12T04:04:35.446Z,99791.22
2022-08-12T04:07:07.953Z,99795.66
2022-08-12T04:09:38.354Z,99797.31
2022-08-12T04:12:26.206Z,99789.47
2022-08-12T04:14:57.095Z,99790.69
2022-08-12T04:17:28.230Z,99796.06
2022-08-12T04:19:57.840Z,99799.19
2022-08-12T04:22:29.540Z,99799.50
2022-08-12T04:25:01.158Z,99800.59
2022-08-12T04:27:31.834Z,99797.28
2022-08-12T04:30:29.920Z,99807.06
2022-08-12T04:32:50.107Z,99805.59
2022-08-12T04:35:18.449Z,99815.69
2022-08-12T04:37:58.162Z,99814.78
2022-08-12T04:40:33.214Z,99816.63
2022-08-12T04:43:03.416Z,99824.09
2022-08-12T04:45:32.960Z,99823.75
2022-08-12T04:48:02.101Z,99817.31
2022-08-12T04:50:34.557Z,99820.03
2022-08-12T04:53:08.044Z,99826.59
2022-08-12T04:55:38.867Z,99834.88
2022-08-12T04:58:08.242Z,99827.13
2022-08-12T05:00:36.293Z,99830.12
2022-08-12T05:03:05.506Z,99830.75
2022-08-12T05:05:36.329Z,99835.94
2022-08-12T05:08:06.418Z,99833.00
2022-08-12T05:10:35.843Z,99837.41
2022-08-12T05:13:08.214Z,99831.16
2022-08-12T05:16:03.953Z,99838.03
2022-08-12T05:18:29.195Z,99838.88
2022-08-12T05:20:59.197Z,99842.84
2022-08-12T05:23:27.110Z,99842.19
2022-08-12T05:25:57.146Z,99843.66
2022-08-12T05:28:27.153Z,99842.38
2022-08-12T05:30:55.536Z,99833.22
2022-08-12T05:33:31.590Z,99835.31
2022-08-12T05:35:59.411Z,99836.97
2022-08-12T05:38:45.557Z,99833.19
2022-08-12T05:41:20.490Z,99842.34
2022-08-12T05:43:51.027Z,99845.22
2022-08-12T05:46:20.753Z,99837.69
2022-08-12T05:48:49.688Z,99841.00
2022-08-12T05:51:18.927Z,99832.22
2022-08-12T05:53:46.895Z,99835.09
2022-08-12T05:56:27.498Z,99836.13
2022-08-12T05:58:56.470Z,99839.22
2022-08-12T06:02:12.276Z,99837.47
2022-08-12T06:04:14.326Z,99841.31
2022-08-12T06:06:42.381Z,99832.84
2022-08-12T06:09:10.988Z,99847.75
2022-08-12T06:12:04.106Z,99839.44
2022-08-12T06:14:29.125Z,99845.28
2022-08-12T06:16:58.019Z,99840.97
2022-08-12T06:20:22.755Z,99848.72
2022-08-12T06:22:15.672Z,99842.66
2022-08-12T06:24:43.423Z,99838.50
2022-08-12T06:27:11.688Z,99842.25
2022-08-12T06:30:09.732Z,99849.75
2022-08-12T06:32:35.340Z,99846.88
2022-08-12T06:35:27.088Z,99848.78
2022-08-12T06:37:57.164Z,99854.41
2022-08-12T06:40:44.487Z,99852.03
2022-08-12T06:43:13.726Z,99847.56
2022-08-12T06:45:46.881Z,99841.78
2022-08-12T06:48:15.454Z,99853.31
2022-08-12T06:50:44.578Z,99849.31
2022-08-12T06:53:12.463Z,99842.41
2022-08-12T06:55:58.035Z,99847.28
2022-08-12T06:58:31.668Z,99846.03
2022-08-12T07:00:59.918Z,99847.41
2022-08-12T07:03:28.712Z,99846.84
2022-08-12T07:06:02.364Z,99844.25
2022-08-12T07:08:34.898Z,99850.38
2022-08-12T07:11:05.407Z,99849.75
2022-08-12T07:14:12.789Z,99850.88
2022-08-12T07:16:46.913Z,99839.91
2022-08-12T07:19:15.487Z,99842.03
2022-08-12T07:21:57.959Z,99848.50
2022-08-12T07:24:28.489Z,99847.41
2022-08-12T07:26:56.244Z,99848.72
2022-08-12T07:29:25.475Z,99851.19
2022-08-12T07:32:13.314Z,99855.13
2022-08-12T07:34:42.420Z,99853.34
2022-08-12T07:37:09.950Z,99860.22
2022-08-12T07:39:51.367Z,99854.25
2022-08-12T07:42:25.358Z,99848.47
2022-08-12T07:44:55.039Z,99850.13
2022-08-12T07:47:23.117Z,99853.25
2022-08-12T07:50:04.303Z,99857.38
2022-08-12T07:52:38.514Z,99855.25
2022-08-12T07:55:06.872Z,99846.50
2022-08-12T07:57:35.044Z,99852.41
2022-08-12T08:00:05.990Z,99861.16
2022-08-12T08:02:36.428Z,99853.47
2022-08-12T08:05:05.033Z,99843.63
2022-08-12T08:07:32.618Z,99849.78
2022-08-12T08:10:01.010Z,99854.63
2022-08-12T08:12:48.379Z,99852.62
2022-08-12T08:15:16.263Z,99847.38
2022-08-12T08:18:01.433Z,99845.62
2022-08-12T08:20:34.224Z,99846.19
2022-08-12T08:23:05.804Z,99851.06
2022-08-12T08:25:36.792Z,99856.13
2022-08-12T08:28:10.761Z,99846.31
2022-08-12T08:30:43.027Z,99842.72
2022-08-12T08:33:20.137Z,99849.19
2022-08-12T08:36:00.859Z,99850.41
2022-08-12T08:38:32.895Z,99849.41
2022-08-12T08:42:13.982Z,99842.16
2022-08-12T08:44:11.464Z,99849.00
2022-08-12T08:46:44.625Z,99847.75
2022-08-12T08:49:13.123Z,99837.91
2022-08-12T08:51:40.835Z,99837.47
2022-08-12T08:54:08.934Z,99836.38
2022-08-12T08:56:52.438Z,99838.38
2022-08-12T08:59:20.237Z,99838.38
2022-08-12T09:01:48.277Z,99834.00
2022-08-12T09:05:10.124Z,99834.97
2022-08-12T09:07:17.737Z,99826.69
2022-08-12T09:10:01.383Z,99818.75
2022-08-12T09:13:03.657Z,99828.53
2022-08-12T09:15:36.344Z,99825.81
2022-08-12T09:18:05.961Z,99826.88
2022-08-12T09:20:38.775Z,99826.75
2022-08-12T09:25:57.175Z,99827.72
2022-08-12T09:28:33.037Z,99814.00
2022-08-12T09:31:00.537Z,99816.88
2022-08-12T09:34:28.975Z,99813.16
2022-08-12T09:36:31.125Z,99818.03
2022-08-12T09:40:03.107Z,99806.81
2022-08-12T09:42:38.693Z,99806.22
2022-08-12T09:45:23.174Z,99800.72
2022-08-12T09:47:59.905Z,99817.50
2022-08-12T09:50:28.332Z,99803.28
2022-08-12T09:53:15.133Z,99805.75
2022-08-12T09:56:07.090Z,99798.62
2022-08-12T09:58:56.634Z,99798.59
2022-08-12T10:01:25.191Z,99808.44
2022-08-12T10:04:04.985Z,99799.03
2022-08-12T10:06:36.641Z,99796.22
2022-08-12T10:09:21.138Z,99793.34
2022-08-12T10:12:11.983Z,99797.69
2022-08-12T10:14:50.300Z,99796.00
2022-08-12T10:17:22.961Z,99799.44
2022-08-12T10:19:53.018Z,99780.84
2022-08-12T10:22:39.436Z,99791.41
2022-08-12T10:26:18.219Z,99775.97
2022-08-12T10:28:38.899Z,99779.00
2022-08-12T10:31:16.332Z,99768.94
2022-08-12T10:33:55.763Z,99775.66
2022-08-12T10:36:40.733Z,99775.25
2022-08-12T10:40:02.149Z,99764.25
2022-08-12T10:42:29.619Z,99767.25
2022-08-12T10:45:18.099Z,99769.75
2022-08-12T10:48:14.938Z,99770.28
2022-08-12T10:51:01.762Z,99763.38
2022-08-12T10:53:44.219Z,99759.44
2022-08-12T10:56:17.988Z,99750.91
2022-08-12T10:58:47.186Z,99762.22
2022-08-12T11:01:50.212Z,99755.31
2022-08-12T11:04:24.946Z,99750.69
2022-08-12T11:07:06.725Z,99744.41
2022-08-12T11:10:00.625Z,99748.06
2022-08-12T11:12:55.450Z,99748.63
2022-08-12T11:15:24.213Z,99755.47
2022-08-12T11:18:03.262Z,99746.00
2022-08-12T11:20:31.496Z,99741.22
2022-08-12T11:23:03.854Z,99734.31
2022-08-12T11:25:56.892Z,99736.59
2022-08-12T11:28:33.498Z,99738.75
2022-08-12T11:31:11.866Z,99741.94
2022-08-12T11:34:04.763Z,99734.69
2022-08-12T11:36:31.047Z,99739.75
2022-08-12T11:39:04.246Z,99733.78
2022-08-12T11:41:39.323Z,99738.34
2022-08-12T11:44:36.169Z,99733.06
2022-08-12T11:46:55.135Z,99735.81
2022-08-12T11:49:31.305Z,99739.25
2022-08-12T11:52:04.410Z,99736.56
2022-08-12T11:54:54.247Z,99730.59
2022-08-12T11:58:14.337Z,99726.78
2022-08-12T12:02:58.781Z,99730.88
2022-08-12T12:05:28.480Z,99724.00
2022-08-12T12:08:38.852Z,99723.97
2022-08-12T12:10:57.359Z,99726.75
2022-08-12T12:14:08.533Z,99730.31
2022-08-12T12:16:15.020Z,99717.13
2022-08-12T12:18:42.861Z,99723.72
2022-08-12T12:21:10.334Z,99729.53
2022-08-12T12:23:38.200Z,99729.75
2022-08-12T12:26:35.724Z,99723.47
2022-08-12T12:29:03.404Z,99721.75
2022-08-12T12:32:10.448Z,99714.34
2022-08-12T12:34:30.549Z,99718.00
2022-08-12T12:36:58.587Z,99711.34
2022-08-12T12:39:28.428Z,99716.31
2022-08-12T12:42:42.866Z,99705.31
2022-08-12T12:44:51.041Z,99703.94
2022-08-12T12:47:29.345Z,99698.00
2022-08-12T12:50:00.965Z,99695.84
2022-08-12T12:52:28.375Z,99685.75
2022-08-12T12:54:58.721Z,99685.94
2022-08-12T12:57:36.150Z,99688.34
2022-08-12T13:00:15.742Z,99681.78
2022-08-12T13:02:57.665Z,99682.44
2022-08-12T13:05:29.311Z,99677.12
2022-08-12T13:08:01.442Z,99671.06
2022-08-12T13:10:37.018Z,99676.25
2022-08-12T13:14:07.398Z,99663.44
2022-08-12T13:16:21.583Z,99662.78
2022-08-12T13:18:54.160Z,99668.38
2022-08-12T13:21:36.677Z,99655.47
2022-08-12T13:24:10.254Z,99669.00
2022-08-12T13:26:48.175Z,99661.66
2022-08-12T13:29:20.282Z,99662.66
2022-08-12T13:32:19.683Z,99669.31
2022-08-12T13:35:04.233Z,99655.63
2022-08-12T13:38:07.907Z,99660.94
2022-08-12T13:40:46.262Z,99656.88
2022-08-12T13:43:40.572Z,99654.41
2022-08-12T13:46:18.180Z,99646.62
2022-08-12T13:48:55.647Z,99647.19
2022-08-12T13:51:24.761Z,99649.13
2022-08-12T13:53:57.591Z,99648.56
2022-08-12T13:56:34.852Z,99642.31
2022-08-12T13:59:07.708Z,99650.50
2022-08-12T14:01:40.779Z,99646.22
2022-08-12T14:04:12.656Z,99640.63
2022-08-12T14:06:41.373Z,99635.09
2022-08-12T14:09:17.231Z,99637.63
2022-08-12T14:11:58.851Z,99634.78
2022-08-12T14:14:31.140Z,99624.00
2022-08-12T14:17:10.407Z,99628.25
2022-08-12T14:20:00.722Z,99626.66
2022-08-12T14:22:30.403Z,99615.56
2022-08-12T14:25:10.027Z,99629.13
2022-08-12T14:28:03.775Z,99627.94
2022-08-12T14:30:29.181Z,99626.13
2022-08-12T14:33:03.441Z,99611.41
2022-08-12T14:35:41.036Z,99611.94
2022-08-12T14:38:25.453Z,99607.22
2022-08-12T14:40:59.620Z,99605.44
2022-08-12T14:43:44.565Z,99600.69
2022-08-12T14:46:23.558Z,99598.16
2022-08-12T14:48:53.915Z,99588.16
2022-08-12T14:52:39.691Z,99594.56
2022-08-12T14:57:05.760Z,99578.78
2022-08-12T15:00:06.287Z,99580.91
2022-08-12T15:02:34.937Z,99586.97
2022-08-12T15:05:03.447Z,99581.84
2022-08-12T15:07:34.453Z,99573.25
2022-08-12T15:10:13.585Z,99570.00
2022-08-12T15:12:41.456Z,99561.13
2022-08-12T15:15:10.558Z,99571.88
2022-08-12T15:17:39.669Z,99564.78
2022-08-12T15:20:33.261Z,99564.53
2022-08-12T15:22:57.873Z,99563.06
2022-08-12T15:25:30.311Z,99555.91
2022-08-12T15:28:25.981Z,99553.81
2022-08-12T15:30:54.325Z,99557.50
2022-08-12T15:33:24.151Z,99559.25
2022-08-12T15:35:53.240Z,99553.78
2022-08-12T15:38:28.157Z,99548.94
2022-08-12T15:40:59.107Z,99550.69
2022-08-12T15:44:14.211Z,99548.84
2022-08-12T15:46:21.330Z,99544.81
2022-08-12T15:48:53.610Z,99551.31
2022-08-12T15:51:59.946Z,99548.84
2022-08-12T15:54:34.399Z,99547.50
2022-08-12T15:57:08.294Z,99547.97
2022-08-12T16:00:00.653Z,99536.13
2022-08-12T16:02:29.850Z,99527.13
2022-08-12T16:04:58.499Z,99528.72
2022-08-12T16:07:31.004Z,99533.97
2022-08-12T16:10:05.942Z,99533.56
2022-08-12T16:12:54.617Z,99527.38
2022-08-12T16:15:29.603Z,99534.19
2022-08-12T16:18:19.105Z,99533.09
2022-08-12T16:20:48.291Z,99531.94
2022-08-12T16:23:26.259Z,99524.09
2022-08-12T16:26:15.565Z,99525.19
2022-08-12T16:28:49.501Z,99541.53
2022-08-12T16:31:23.126Z,99528.22
2022-08-12T16:33:58.861Z,99541.00
2022-08-12T16:36:31.952Z,99535.03
2022-08-12T16:39:01.966Z,99530.91
2022-08-12T16:41:39.451Z,99529.94
2022-08-12T16:44:09.222Z,99538.69
2022-08-12T16:46:50.676Z,99535.09
2022-08-12T16:49:26.318Z,99537.00
2022-08-12T16:52:12.577Z,99530.22
2022-08-12T16:54:44.290Z,99529.41
2022-08-12T16:57:13.950Z,99518.97
2022-08-12T16:59:54.210Z,99518.69
2022-08-12T17:02:33.445Z,99510.47
2022-08-12T17:05:05.265Z,99516.19
2022-08-12T17:07:43.505Z,99517.06
2022-08-12T17:10:18.455Z,99520.63
2022-08-12T17:13:20.112Z,99514.84
2022-08-12T17:16:05.668Z,99513.78
2022-08-12T17:18:45.492Z,99509.38
2022-08-12T17:21:41.446Z,99518.13
2022-08-12T17:24:22.384Z,99519.53
2022-08-12T17:26:56.538Z,99523.66
2022-08-12T17:30:01.079Z,99511.59
2022-08-12T17:32:28.305Z,99520.63
2022-08-12T17:35:19.580Z,99518.16
2022-08-12T17:37:50.425Z,99517.91
2022-08-12T17:40:40.690Z,99519.53
2022-08-12T17:43:54.701Z,99521.16
2022-08-12T17:46:03.388Z,99519.72
2022-08-12T17:48:34.168Z,99517.22
2022-08-12T17:51:16.028Z,99523.53
2022-08-12T17:54:10.709Z,99511.38
2022-08-12T17:56:37.464Z,99518.50
2022-08-12T17:59:12.373Z,99516.81
2022-08-12T18:01:47.560Z,99520.66
2022-08-12T18:04:36.082Z,99519.88
2022-08-12T18:07:14.123Z,99524.19
2022-08-12T18:09:43.050Z,99520.03
2022-08-12T18:12:35.627Z,99524.19
2022-08-12T18:15:09.020Z,99520.16
2022-08-12T18:17:39.665Z,99523.56
2022-08-12T18:20:15.441Z,99525.34
2022-08-12T18:22:47.196Z,99522.66
2022-08-12T18:26:11.550Z,99533.41
2022-08-12T18:28:30.786Z,99529.34
2022-08-12T18:33:45.945Z,99535.44
2022-08-12T18:36:22.465Z,99537.84
2022-08-12T18:38:56.076Z,99529.13
2022-08-12T18:41:36.037Z,99537.41
2022-08-12T18:44:06.072Z,99534.31
2022-08-12T18:46:54.978Z,99531.62
2022-08-12T18:49:29.692Z,99529.03
2022-08-12T18:52:04.138Z,99535.03
2022-08-12T18:54:35.524Z,99533.81
2022-08-12T18:57:16.734Z,99539.38
2022-08-12T19:00:00.063Z,99543.63
2022-08-12T19:02:36.052Z,99541.47
2022-08-12T19:05:10.061Z,99541.03
2022-08-12T19:07:50.119Z,99547.19
2022-08-12T19:10:32.377Z,99539.56
2022-08-12T19:13:23.048Z,99543.69
2022-08-12T19:15:58.136Z,99538.22
2022-08-12T19:18:31.121Z,99537.28
2022-08-12T19:21:11.580Z,99547.03
2022-08-12T19:24:15.516Z,99549.00
2022-08-12T19:26:46.095Z,99544.13
2022-08-12T19:29:25.309Z,99542.16
2022-08-12T19:32:03.166Z,99544.44
2022-08-12T19:38:03.186Z,99546.88
2022-08-12T19:40:32.700Z,99543.28
2022-08-12T19:43:20.094Z,99546.56
2022-08-12T19:45:51.831Z,99548.84
2022-08-12T19:48:22.966Z,99544.94
2022-08-12T19:50:54.107Z,99532.69
2022-08-12T19:53:23.444Z,99541.44
2022-08-12T19:55:53.773Z,99548.88
2022-08-12T19:58:22.803Z,99537.69
2022-08-12T20:00:54.932Z,99538.16
2022-08-12T20:03:38.275Z,99535.06
2022-08-12T20:06:14.130Z,99530.50
2022-08-12T20:08:53.822Z,99536.00
2022-08-12T20:12:13.518Z,99535.72
2022-08-12T20:14:20.968Z,99531.50
2022-08-12T20:16:57.183Z,99532.06
2022-08-12T20:20:01.141Z,99531.81
2022-08-12T20:22:29.770Z,99530.44
2022-08-12T20:25:14.011Z,99531.31
2022-08-12T20:28:04.635Z,99524.16
2022-08-12T20:30:59.195Z,99532.69
2022-08-12T20:33:50.112Z,99533.25
2022-08-12T20:36:40.713Z,99527.44
2022-08-12T20:39:34.434Z,99530.72
2022-08-12T20:42:07.435Z,99529.72
2022-08-12T20:44:39.625Z,99529.22
2022-08-12T20:47:17.953Z,99528.66
2022-08-12T20:49:55.243Z,99528.84
2022-08-12T20:52:29.822Z,99526.69
2022-08-12T20:55:01.166Z,99523.84
2022-08-12T20:57:37.828Z,99527.75
2022-08-12T21:00:16.304Z,99523.47
2022-08-12T21:02:50.092Z,99520.16
2022-08-12T21:06:10.299Z,99528.09
2022-08-12T21:08:30.999Z,99520.28
2022-08-12T21:11:01.933Z,99521.56
2022-08-12T21:13:29.563Z,99526.44
2022-08-12T21:16:09.904Z,99523.97
2022-08-12T21:18:38.138Z,99525.03
2022-08-12T21:21:06.859Z,99530.00
2022-08-12T21:23:52.316Z,99518.75
2022-08-12T21:26:24.347Z,99521.13
2022-08-12T21:29:01.400Z,99525.84
2022-08-12T21:32:39.507Z,99521.94
2022-08-12T21:34:23.003Z,99522.88
2022-08-12T21:37:11.931Z,99530.81
2022-08-12T21:39:52.446Z,99530.09
2022-08-12T21:42:20.992Z,99540.50
2022-08-12T21:45:47.003Z,99533.91
2022-08-12T21:47:43.398Z,99548.19
2022-08-12T21:50:11.098Z,99545.47
2022-08-12T21:52:42.188Z,99551.84
2022-08-12T21:55:18.019Z,99551.72
2022-08-12T21:57:54.565Z,99542.56
2022-08-12T22:00:35.139Z,99548.28
2022-08-12T22:04:03.771Z,99553.72
2022-08-12T22:06:31.114Z,99555.66
2022-08-12T22:09:16.454Z,99548.16
2022-08-12T22:11:57.006Z,99547.81
2022-08-12T22:14:28.731Z,99549.34
2022-08-12T22:16:57.376Z,99546.84
2022-08-12T22:19:24.970Z,99545.81
2022-08-12T22:21:58.873Z,99540.75
2022-08-12T22:24:31.402Z,99540.53
2022-08-12T22:27:14.485Z,99531.38
2022-08-12T22:30:07.022Z,99538.84
2022-08-12T22:32:38.914Z,99532.81
2022-08-12T22:35:55.375Z,99537.78
2022-08-12T22:38:23.935Z,99528.56
2022-08-12T22:41:00.858Z,99540.03
2022-08-12T22:44:01.127Z,99542.16
2022-08-12T22:46:51.834Z,99533.63
2022-08-12T22:49:36.292Z,99533.28
2022-08-12T22:52:08.398Z,99540.97
2022-08-12T22:54:37.548Z,99535.84
2022-08-12T22:57:14.132Z,99537.31
2022-08-12T22:59:55.647Z,99539.03
2022-08-12T23:02:30.232Z,99539.94
2022-08-12T23:04:58.603Z,99536.56
2022-08-12T23:07:26.084Z,99536.22
2022-08-12T23:09:54.801Z,99536.00
2022-08-12T23:12:46.992Z,99530.97
2022-08-12T23:15:16.466Z,99530.81
2022-08-12T23:17:45.981Z,99525.16
2022-08-12T23:20:15.108Z,99514.06
2022-08-12T23:23:02.798Z,99521.44
2022-08-12T23:25:32.645Z,99520.06
2022-08-12T23:28:36.877Z,99514.50
2022-08-12T23:31:06.583Z,99503.19
2022-08-12T23:34:02.260Z,99504.16
2022-08-12T23:36:39.384Z,99500.56
2022-08-12T23:40:15.743Z,99488.84
2022-08-12T23:42:16.944Z,99501.53
2022-08-12T23:44:48.369Z,99496.56
2022-08-12T23:47:21.434Z,99498.81
2022-08-12T23:49:58.640Z,99489.31
2022-08-12T23:52:34.394Z,99498.44
2022-08-12T23:55:25.057Z,99482.81
2022-08-12T23:58:18.118Z,99483.16
